createdAt,value
2023-01-27T00:00:39.350Z,5.10
2023-01-27T00:03:07.908Z,5.10
2023-01-27T00:05:35.868Z,5.20
2023-01-27T00:08:15.851Z,5.20
2023-01-27T00:10:43.913Z,5.20
2023-01-27T00:13:28.041Z,5.30
2023-01-27T00:15:56.473Z,5.30
2023-01-27T00:18:25.719Z,5.30
2023-01-27T00:21:13.597Z,5.30
2023-01-27T00:24:00.615Z,5.30
2023-01-27T00:26:28.883Z,5.30
2023-01-27T00:29:02.777Z,5.30
2023-01-27T00:31:49.097Z,5.30
2023-01-27T00:34:18.408Z,5.30
2023-01-27T00:36:46.568Z,5.40
2023-01-27T00:39:15.995Z,5.40
2023-01-27T00:41:44.061Z,5.40
2023-01-27T00:44:13.371Z,5.30
2023-01-27T00:46:42.083Z,5.30
2023-01-27T00:49:13.203Z,5.30
2023-01-27T00:51:41.215Z,5.30
2023-01-27T00:54:11.216Z,5.30
2023-01-27T00:56:40.523Z,5.30
2023-01-27T00:59:10.390Z,5.30
2023-01-27T01:01:39.596Z,5.30
2023-01-27T01:04:07.551Z,5.30
2023-01-27T01:06:35.721Z,5.40
2023-01-27T01:09:03.769Z,5.40
2023-01-27T01:11:31.779Z,5.40
2023-01-27T01:14:03.765Z,5.40
2023-01-27T01:16:31.721Z,5.40
2023-01-27T01:18:59.800Z,5.40
2023-01-27T01:21:27.808Z,5.30
2023-01-27T01:23:55.862Z,5.30
2023-01-27T01:26:23.844Z,5.30
2023-01-27T01:28:51.909Z,5.40
2023-01-27T01:31:21.999Z,5.40
2023-01-27T01:33:50.336Z,5.40
2023-01-27T01:36:20.547Z,5.30
2023-01-27T01:38:49.087Z,5.40
2023-01-27T01:41:20.775Z,5.40
2023-01-27T01:43:51.865Z,5.40
2023-01-27T01:46:21.729Z,5.40
2023-01-27T01:48:53.894Z,5.40
2023-01-27T01:51:29.172Z,5.30
2023-01-27T01:54:01.875Z,5.30
2023-01-27T01:56:36.643Z,5.40
2023-01-27T01:59:15.301Z,5.40
2023-01-27T02:01:45.733Z,5.40
2023-01-27T02:04:19.108Z,5.40
2023-01-27T02:06:57.647Z,5.40
2023-01-27T02:09:25.864Z,5.50
2023-01-27T02:11:53.924Z,5.50
2023-01-27T02:14:22.439Z,5.50
2023-01-27T02:16:51.798Z,5.50
2023-01-27T02:19:26.590Z,5.50
2023-01-27T02:21:56.901Z,5.50
2023-01-27T02:24:33.502Z,5.50
2023-01-27T02:27:07.674Z,5.50
2023-01-27T02:29:35.732Z,5.50
2023-01-27T02:32:07.671Z,5.50
2023-01-27T02:34:38.701Z,5.50
2023-01-27T02:37:10.813Z,5.50
2023-01-27T02:39:44.699Z,5.40
2023-01-27T02:42:16.765Z,5.40
2023-01-27T02:44:45.511Z,5.40
2023-01-27T02:47:15.176Z,5.40
2023-01-27T02:49:43.154Z,5.40
2023-01-27T02:52:21.524Z,5.30
2023-01-27T02:54:49.491Z,5.30
2023-01-27T02:57:18.823Z,5.40
2023-01-27T02:59:46.850Z,5.30
2023-01-27T03:02:14.843Z,5.30
2023-01-27T03:04:42.894Z,5.30
2023-01-27T03:07:10.873Z,5.30
2023-01-27T03:09:38.816Z,5.30
2023-01-27T03:12:22.459Z,5.30
2023-01-27T03:15:10.944Z,5.30
2023-01-27T03:17:57.741Z,5.20
2023-01-27T03:20:25.832Z,5.20
2023-01-27T03:22:53.828Z,5.20
2023-01-27T03:25:21.901Z,5.20
2023-01-27T03:27:49.985Z,5.20
2023-01-27T03:30:19.361Z,5.10
2023-01-27T03:32:48.656Z,5.00
2023-01-27T03:35:19.186Z,5.00
2023-01-27T03:38:04.712Z,5.00
2023-01-27T03:40:50.029Z,5.00
2023-01-27T03:43:35.548Z,5.00
2023-01-27T03:46:20.180Z,4.90
2023-01-27T03:48:53.003Z,4.90
2023-01-27T03:51:22.248Z,4.90
2023-01-27T03:53:50.972Z,4.80
2023-01-27T03:56:21.381Z,4.90
2023-01-27T03:58:50.430Z,4.90
2023-01-27T04:01:25.000Z,4.80
2023-01-27T04:04:11.336Z,4.80
2023-01-27T04:06:54.692Z,4.80
2023-01-27T04:09:25.520Z,4.80
2023-01-27T04:11:56.161Z,4.80
2023-01-27T04:14:28.142Z,4.80
2023-01-27T04:16:59.684Z,4.80
2023-01-27T04:19:33.201Z,4.70
2023-01-27T04:22:02.377Z,4.70
2023-01-27T04:24:32.843Z,4.70
2023-01-27T04:27:03.229Z,4.60
2023-01-27T04:29:35.933Z,4.60
2023-01-27T04:32:06.734Z,4.70
2023-01-27T04:34:40.503Z,4.60
2023-01-27T04:37:10.407Z,4.70
2023-01-27T04:39:41.349Z,4.70
2023-01-27T04:42:09.305Z,4.70
2023-01-27T04:44:43.256Z,4.70
2023-01-27T04:47:12.631Z,4.60
2023-01-27T04:49:47.551Z,4.60
2023-01-27T04:52:15.539Z,4.60
2023-01-27T04:54:45.850Z,4.60
2023-01-27T04:57:14.112Z,4.60
2023-01-27T04:59:52.502Z,4.60
2023-01-27T05:02:29.535Z,4.60
2023-01-27T05:04:58.018Z,4.60
2023-01-27T05:07:32.291Z,4.60
2023-01-27T05:10:00.733Z,4.60
2023-01-27T05:12:34.298Z,4.60
2023-01-27T05:15:02.296Z,4.60
2023-01-27T05:17:36.436Z,4.60
2023-01-27T05:20:04.589Z,4.50
2023-01-27T05:22:35.520Z,4.60
2023-01-27T05:25:03.581Z,4.50
2023-01-27T05:27:42.012Z,4.60
2023-01-27T05:30:11.373Z,4.60
2023-01-27T05:32:42.107Z,4.60
2023-01-27T05:35:10.722Z,4.60
2023-01-27T05:37:44.984Z,4.50
2023-01-27T05:40:14.172Z,4.50
2023-01-27T05:42:47.465Z,4.50
2023-01-27T05:45:15.879Z,4.50
2023-01-27T05:47:50.749Z,4.50
2023-01-27T05:50:19.368Z,4.50
2023-01-27T05:52:49.286Z,4.50
2023-01-27T05:55:17.922Z,4.50
2023-01-27T05:57:45.878Z,4.50
2023-01-27T06:00:14.866Z,4.50
2023-01-27T06:02:43.299Z,4.60
2023-01-27T06:05:13.007Z,4.60
2023-01-27T06:07:41.109Z,4.60
2023-01-27T06:10:15.080Z,4.60
2023-01-27T06:12:43.048Z,4.60
2023-01-27T06:15:16.423Z,4.60
2023-01-27T06:17:44.519Z,4.60
2023-01-27T06:20:17.116Z,4.60
2023-01-27T06:22:45.149Z,4.50
2023-01-27T06:25:13.533Z,4.50
2023-01-27T06:27:41.744Z,4.50
2023-01-27T06:30:11.380Z,4.60
2023-01-27T06:32:43.055Z,4.50
2023-01-27T06:35:11.423Z,4.50
2023-01-27T06:37:51.933Z,4.60
2023-01-27T06:40:20.079Z,4.60
2023-01-27T06:42:50.140Z,4.60
2023-01-27T06:45:18.441Z,4.50
2023-01-27T06:47:51.989Z,4.60
2023-01-27T06:50:20.280Z,4.50
2023-01-27T06:53:01.144Z,4.50
2023-01-27T06:55:33.593Z,4.60
2023-01-27T06:58:02.967Z,4.60
2023-01-27T07:00:35.983Z,4.50
2023-01-27T07:03:03.984Z,4.50
2023-01-27T07:05:37.231Z,4.40
2023-01-27T07:08:06.805Z,4.40
2023-01-27T07:10:43.593Z,4.50
2023-01-27T07:13:13.925Z,4.50
2023-01-27T07:16:06.203Z,4.50
2023-01-27T07:21:32.959Z,4.50
2023-01-27T07:24:06.154Z,4.50
2023-01-27T07:34:54.829Z,4.50
2023-01-27T07:37:30.069Z,4.50
2023-01-27T07:40:00.816Z,4.50
2023-01-27T07:42:35.822Z,4.50
2023-01-27T07:45:04.212Z,4.50
2023-01-27T07:47:35.995Z,4.50
2023-01-27T07:50:26.786Z,4.50
2023-01-27T07:53:23.806Z,4.50
2023-01-27T07:56:03.933Z,4.40
2023-01-27T07:58:40.882Z,4.50
2023-01-27T08:01:20.480Z,4.40
2023-01-27T08:03:49.677Z,4.50
2023-01-27T08:09:06.793Z,4.50
2023-01-27T08:11:48.638Z,4.50
2023-01-27T08:16:58.808Z,4.60
2023-01-27T08:19:36.114Z,4.50
2023-01-27T08:22:19.802Z,4.50
2023-01-27T08:24:54.111Z,4.50
2023-01-27T08:27:31.184Z,4.60
2023-01-27T08:30:00.011Z,4.60
2023-01-27T08:32:35.839Z,4.60
2023-01-27T08:35:05.231Z,4.60
2023-01-27T08:37:35.507Z,4.70
2023-01-27T08:40:03.891Z,4.70
2023-01-27T08:45:19.365Z,4.60
2023-01-27T08:47:47.744Z,4.70
2023-01-27T08:50:24.410Z,4.70
2023-01-27T08:55:29.131Z,4.80
2023-01-27T09:00:55.330Z,4.80
2023-01-27T09:03:25.940Z,4.90
2023-01-27T09:11:15.120Z,4.90
2023-01-27T09:13:58.356Z,4.90
2023-01-27T09:20:17.679Z,5.00
2023-01-27T09:22:41.428Z,5.00
2023-01-27T09:25:24.106Z,5.00
2023-01-27T09:28:02.648Z,5.00
2023-01-27T09:30:41.142Z,5.10
2023-01-27T09:33:21.032Z,5.10
2023-01-27T09:36:01.363Z,5.10
2023-01-27T09:38:48.111Z,5.10
2023-01-27T09:52:47.768Z,5.30
2023-01-27T09:55:27.380Z,5.30
2023-01-27T09:58:07.203Z,5.40
2023-01-27T10:00:54.988Z,5.40
2023-01-27T10:04:13.466Z,5.40
2023-01-27T10:24:04.298Z,5.60
2023-01-27T10:26:45.407Z,5.60
2023-01-27T10:29:25.117Z,5.70
2023-01-27T10:32:08.335Z,5.60
2023-01-27T10:34:47.553Z,5.60
2023-01-27T10:37:28.091Z,5.60
2023-01-27T10:40:15.598Z,5.50
2023-01-27T10:43:04.309Z,5.50
2023-01-27T10:45:48.883Z,5.50
2023-01-27T10:48:45.497Z,5.40
2023-01-27T10:51:19.530Z,5.30
2023-01-27T10:54:14.739Z,5.30
2023-01-27T10:56:55.810Z,5.40
2023-01-27T11:00:17.431Z,5.40
2023-01-27T11:02:56.959Z,5.40
2023-01-27T11:05:36.590Z,5.50
2023-01-27T11:08:24.640Z,5.50
2023-01-27T11:11:25.127Z,5.50
2023-01-27T11:14:05.668Z,5.50
2023-01-27T11:16:59.590Z,5.50
2023-01-27T11:20:05.063Z,5.50
2023-01-27T11:26:11.104Z,5.50
2023-01-27T11:29:13.991Z,5.60
2023-01-27T11:31:55.638Z,5.60
2023-01-27T11:38:00.629Z,5.50
2023-01-27T11:40:50.307Z,5.50
2023-01-27T11:43:39.476Z,5.50
2023-01-27T12:24:30.206Z,5.60
2023-01-27T12:27:10.251Z,5.60
2023-01-27T12:42:36.611Z,5.50
2023-01-27T12:45:45.496Z,5.50
2023-01-27T12:49:05.578Z,5.50
2023-01-27T12:55:08.451Z,5.50
2023-01-27T12:58:30.884Z,5.40
2023-01-27T13:01:46.802Z,5.40
2023-01-27T13:04:50.628Z,5.40
2023-01-27T13:07:31.903Z,5.50
2023-01-27T13:14:36.375Z,5.50
2023-01-27T13:18:12.550Z,5.50
2023-01-27T13:21:19.137Z,5.50
2023-01-27T13:27:00.809Z,5.40
2023-01-27T13:29:57.256Z,5.40
2023-01-27T13:36:04.982Z,5.50
2023-01-27T13:39:43.604Z,5.40
2023-01-27T13:42:42.177Z,5.50
2023-01-27T13:56:45.388Z,5.40
2023-01-27T14:00:08.347Z,5.40
2023-01-27T14:03:33.077Z,5.40
2023-01-27T14:11:58.319Z,5.30
2023-01-27T14:15:17.568Z,5.40
2023-01-27T14:27:17.161Z,5.30
2023-01-27T14:57:46.659Z,5.20
2023-01-27T15:00:37.423Z,5.20
2023-01-27T15:03:47.335Z,5.30
2023-01-27T15:06:51.800Z,5.30
2023-01-27T15:09:51.392Z,5.20
2023-01-27T15:13:03.961Z,5.20
2023-01-27T15:16:13.488Z,5.20
2023-01-27T15:19:36.734Z,5.20
2023-01-27T15:22:41.618Z,5.10
2023-01-27T15:25:37.233Z,5.00
2023-01-27T15:28:26.346Z,5.00
2023-01-27T15:31:20.475Z,5.00
2023-01-27T15:34:32.702Z,4.90
2023-01-27T15:37:12.606Z,4.90
2023-01-27T15:40:05.629Z,4.80
2023-01-27T15:42:54.279Z,4.80
2023-01-27T15:45:46.547Z,4.70
2023-01-27T15:48:30.288Z,4.70
2023-01-27T15:51:22.387Z,4.70
2023-01-27T15:54:13.242Z,4.70
2023-01-27T15:57:08.479Z,4.70
2023-01-27T15:59:59.136Z,4.60
2023-01-27T16:02:38.093Z,4.60
2023-01-27T16:05:20.537Z,4.60
2023-01-27T16:08:15.384Z,4.50
2023-01-27T16:16:41.193Z,4.50
2023-01-27T16:27:45.884Z,4.30
2023-01-27T16:30:28.610Z,4.40
2023-01-27T16:33:07.872Z,4.40
2023-01-27T16:35:49.755Z,4.30
2023-01-27T16:38:35.185Z,4.30
2023-01-27T16:45:49.285Z,4.20
2023-01-27T16:48:38.939Z,4.20
2023-01-27T17:02:24.911Z,4.00
2023-01-27T17:05:17.439Z,4.10
2023-01-27T17:08:19.411Z,4.00
2023-01-27T17:13:46.346Z,4.00
2023-01-27T17:16:32.768Z,3.90
2023-01-27T17:19:07.948Z,4.00
2023-01-27T17:21:53.167Z,4.00
2023-01-27T17:27:37.942Z,3.90
2023-01-27T17:47:01.957Z,3.70
2023-01-27T17:49:54.335Z,3.70
2023-01-27T18:12:46.768Z,3.70
2023-01-27T18:20:55.755Z,3.70
2023-01-27T18:23:34.949Z,3.70
2023-01-27T18:45:20.306Z,3.60
2023-01-27T18:47:48.690Z,3.60
2023-01-27T18:50:22.463Z,3.60
2023-01-27T18:58:07.924Z,3.60
2023-01-27T19:00:48.760Z,3.60
2023-01-27T19:03:26.800Z,3.60
2023-01-27T19:05:55.570Z,3.60
2023-01-27T19:08:29.493Z,3.60
2023-01-27T19:10:57.639Z,3.50
2023-01-27T19:13:28.748Z,3.50
2023-01-27T19:15:59.438Z,3.50
2023-01-27T19:21:10.704Z,3.40
2023-01-27T19:23:39.140Z,3.40
2023-01-27T19:26:15.739Z,3.30
2023-01-27T19:28:44.906Z,3.30
2023-01-27T19:31:17.914Z,3.20
2023-01-27T19:33:47.482Z,3.30
2023-01-27T19:36:25.646Z,3.30
2023-01-27T19:39:02.451Z,3.30
2023-01-27T19:41:30.686Z,3.30
2023-01-27T19:44:00.928Z,3.30
2023-01-27T19:46:31.225Z,3.30
2023-01-27T19:49:05.204Z,3.40
2023-01-27T19:51:34.312Z,3.40
2023-01-27T19:54:11.492Z,3.40
2023-01-27T19:56:47.239Z,3.40
2023-01-27T19:59:15.325Z,3.30
2023-01-27T20:02:14.323Z,3.30
2023-01-27T20:04:52.639Z,3.30
2023-01-27T20:07:20.833Z,3.30
2023-01-27T20:09:50.938Z,3.20
2023-01-27T20:12:19.127Z,3.10
2023-01-27T20:14:56.483Z,3.10
2023-01-27T20:17:33.472Z,3.00
2023-01-27T20:20:19.948Z,3.10
2023-01-27T20:22:55.627Z,3.10
2023-01-27T20:25:26.018Z,3.20
2023-01-27T20:27:57.681Z,3.20
2023-01-27T20:30:29.450Z,3.20
2023-01-27T20:33:09.290Z,3.20
2023-01-27T20:35:46.246Z,3.20
2023-01-27T20:38:21.785Z,3.10
2023-01-27T20:40:50.268Z,3.10
2023-01-27T20:43:34.675Z,3.10
2023-01-27T20:54:13.216Z,3.10
2023-01-27T20:59:29.424Z,3.10
2023-01-27T21:02:00.275Z,3.10
2023-01-27T21:20:41.864Z,3.00
2023-01-27T21:23:09.982Z,3.00
2023-01-27T21:25:45.105Z,3.00
2023-01-27T21:51:54.932Z,2.90
2023-01-27T21:54:30.413Z,2.90
2023-01-27T21:59:51.937Z,2.90
2023-01-27T22:05:01.096Z,2.80
2023-01-27T22:07:37.067Z,2.80
2023-01-27T22:10:06.921Z,2.70
2023-01-27T22:12:41.623Z,2.80
2023-01-27T22:17:51.437Z,2.80
2023-01-27T22:20:31.653Z,2.80
2023-01-27T22:23:08.832Z,2.70
2023-01-27T22:34:29.403Z,2.70
2023-01-27T22:36:57.489Z,2.70
2023-01-27T22:39:35.312Z,2.70
2023-01-27T22:44:38.972Z,2.60
2023-01-27T22:47:21.156Z,2.60
2023-01-27T22:50:02.115Z,2.60
2023-01-27T22:52:36.420Z,2.60
2023-01-27T22:55:07.451Z,2.60
2023-01-27T22:57:37.502Z,2.60
2023-01-27T23:00:07.735Z,2.50
2023-01-27T23:02:41.690Z,2.60
2023-01-27T23:05:10.867Z,2.60
2023-01-27T23:07:44.938Z,2.50
2023-01-27T23:10:14.490Z,2.50
2023-01-27T23:12:45.374Z,2.50
2023-01-27T23:15:14.295Z,2.50
2023-01-27T23:17:50.468Z,2.50
2023-01-27T23:20:26.502Z,2.40
2023-01-27T23:22:54.896Z,2.40
2023-01-27T23:25:34.962Z,2.40
2023-01-27T23:28:14.082Z,2.40
2023-01-27T23:33:36.459Z,2.40
2023-01-27T23:36:08.293Z,2.40
2023-01-27T23:38:42.063Z,2.40
